createdAt,value
2022-08-22T00:08:50.650Z,19.2
2022-08-22T00:23:14.027Z,18.7
2022-08-22T00:37:41.913Z,18.5
2022-08-22T00:52:09.498Z,18.1
2022-08-22T01:06:38.413Z,18.3
2022-08-22T01:21:08.253Z,18.4
2022-08-22T01:35:37.553Z,18.2
2022-08-22T01:50:04.973Z,18.2
2022-08-22T02:04:33.414Z,17.7
2022-08-22T02:19:01.659Z,17.6
2022-08-22T02:33:28.212Z,17.5
2022-08-22T02:48:02.135Z,17.1
2022-08-22T03:02:33.397Z,16.9
2022-08-22T03:16:57.645Z,16.5
2022-08-22T03:31:25.195Z,16.7
2022-08-22T03:45:53.872Z,16.7
2022-08-22T04:00:23.025Z,16.9
2022-08-22T04:14:51.539Z,16.1
2022-08-22T04:29:18.849Z,16
2022-08-22T04:43:53.655Z,15.9
2022-08-22T04:58:23.534Z,16.2
2022-08-22T05:12:45.867Z,15.7
2022-08-22T05:27:12.840Z,16.3
2022-08-22T05:41:28.844Z,16.4
2022-08-22T05:55:58.132Z,16.8
2022-08-22T06:10:27.467Z,17.2
2022-08-22T06:25:02.893Z,17.4
2022-08-22T06:39:28.912Z,18.1
2022-08-22T06:54:06.407Z,19.1
2022-08-22T07:08:40.115Z,20.3
2022-08-22T07:23:14.062Z,20.7
2022-08-22T07:37:39.174Z,21.3
2022-08-22T07:52:17.777Z,25.4
2022-08-22T08:06:46.808Z,25.5
2022-08-22T08:21:11.187Z,25.4
2022-08-22T08:35:42.524Z,26.1
2022-08-22T08:50:23.739Z,26.9
2022-08-22T09:04:53.542Z,28.4
2022-08-22T09:19:27.714Z,30.5
2022-08-22T09:33:53.013Z,28.8
2022-08-22T09:48:22.653Z,27.4
2022-08-22T10:02:54.369Z,28.4
2022-08-22T10:17:21.691Z,28.1
2022-08-22T10:31:58.816Z,27.7
2022-08-22T10:46:29.756Z,28.4
2022-08-22T11:00:59.547Z,28.8
2022-08-22T11:15:35.039Z,29.3
2022-08-22T11:30:02.162Z,28.8
2022-08-22T11:44:30.945Z,29.4
2022-08-22T11:59:05.198Z,28.7
2022-08-22T12:13:35.068Z,29.2
2022-08-22T12:28:05.984Z,30.2
2022-08-22T12:42:40.381Z,29.6
2022-08-22T12:57:23.634Z,29.3
2022-08-22T13:11:42.574Z,29.7
2022-08-22T13:26:16.341Z,30.6
2022-08-22T13:40:55.205Z,29.6
2022-08-22T13:55:23.127Z,29.5
2022-08-22T14:09:54.485Z,29.7
2022-08-22T14:24:25.632Z,29.7
2022-08-22T14:38:52.249Z,30
2022-08-22T14:53:19.435Z,29.2
2022-08-22T15:07:47.770Z,29.4
2022-08-22T15:22:21.278Z,28.7
2022-08-22T15:36:54.821Z,29
2022-08-22T15:51:19.694Z,28.3
2022-08-22T16:05:50.804Z,28
2022-08-22T16:20:19.885Z,28
2022-08-22T16:34:45.421Z,27.9
2022-08-22T16:49:12.207Z,27.7
2022-08-22T17:03:47.432Z,27.7
2022-08-22T17:18:17.232Z,27.7
2022-08-22T17:32:47.280Z,27.6
2022-08-22T17:47:23.866Z,27.6
2022-08-22T18:01:47.624Z,27.3
2022-08-22T18:16:15.236Z,26.9
2022-08-22T18:30:42.196Z,26.1
2022-08-22T18:45:10.469Z,26.1
2022-08-22T18:59:37.016Z,25.9
2022-08-22T19:14:03.151Z,25.8
2022-08-22T19:28:32.162Z,25.5
2022-08-22T19:43:01.934Z,25.4
2022-08-22T19:57:32.083Z,25.3
2022-08-22T20:12:00.802Z,25.1
2022-08-22T20:26:29.057Z,25.1
2022-08-22T20:40:59.504Z,25
2022-08-22T20:55:25.453Z,24.8
2022-08-22T21:09:55.768Z,24.7
2022-08-22T21:24:24.046Z,24.5
2022-08-22T21:38:52.638Z,24.5
2022-08-22T21:53:18.842Z,23.9
2022-08-22T22:07:44.845Z,23.5
2022-08-22T22:22:13.655Z,23.6
2022-08-22T22:36:42.262Z,23.7
2022-08-22T22:51:15.802Z,23.6
2022-08-22T23:05:45.598Z,23.2
2022-08-22T23:20:09.535Z,22.9
2022-08-22T23:34:37.176Z,22.8
2022-08-22T23:49:05.895Z,22.8
